createdAt,value
2018-07-03T00:01:31.651Z,91.00
2018-07-03T00:04:00.285Z,92.00
2018-07-03T00:06:29.107Z,91.20
2018-07-03T00:08:57.662Z,91.10
2018-07-03T00:11:26.311Z,91.60
2018-07-03T00:13:54.934Z,90.80
2018-07-03T00:16:28.778Z,92.30
2018-07-03T00:18:57.463Z,91.10
2018-07-03T00:21:25.991Z,92.00
2018-07-03T00:26:22.897Z,92.70
2018-07-03T00:28:51.512Z,92.40
2018-07-03T00:31:20.036Z,90.90
2018-07-03T00:33:48.671Z,91.20
2018-07-03T00:36:17.263Z,92.90
2018-07-03T00:38:45.834Z,93.20
2018-07-03T00:41:14.373Z,93.80
2018-07-03T00:43:43.154Z,92.40
2018-07-03T00:46:11.670Z,92.70
2018-07-03T00:48:40.446Z,93.40
2018-07-03T00:51:09.070Z,92.30
2018-07-03T00:53:37.579Z,92.20
2018-07-03T00:56:06.439Z,92.40
2018-07-03T00:58:35.083Z,91.20
2018-07-03T01:01:03.670Z,91.70
2018-07-03T01:03:32.190Z,93.50
2018-07-03T01:06:00.965Z,93.80
2018-07-03T01:08:29.744Z,93.30
2018-07-03T01:10:58.374Z,93.10
2018-07-03T01:13:27.135Z,93.60
2018-07-03T01:15:55.671Z,92.20
2018-07-03T01:18:24.285Z,92.60
2018-07-03T01:20:52.955Z,92.60
2018-07-03T01:23:21.749Z,94.20
2018-07-03T01:25:50.426Z,94.10
2018-07-03T01:28:19.126Z,94.70
2018-07-03T01:30:47.674Z,94.20
2018-07-03T01:33:16.518Z,94.20
2018-07-03T01:35:45.079Z,94.60
2018-07-03T01:38:13.695Z,95.30
2018-07-03T01:40:42.357Z,94.90
2018-07-03T01:43:10.993Z,94.60
2018-07-03T01:45:39.651Z,94.20
2018-07-03T01:48:08.198Z,94.10
2018-07-03T01:50:36.982Z,94.90
2018-07-03T01:53:05.754Z,95.20
2018-07-03T01:55:34.454Z,96.70
2018-07-03T01:58:03.293Z,95.10
2018-07-03T02:00:31.866Z,94.70
2018-07-03T02:03:00.629Z,94.60
2018-07-03T02:05:29.159Z,96.00
2018-07-03T02:07:57.718Z,94.90
2018-07-03T02:10:26.891Z,94.70
2018-07-03T02:12:55.467Z,96.10
2018-07-03T02:15:24.338Z,96.00
2018-07-03T02:17:53.054Z,96.40
2018-07-03T02:20:21.706Z,96.60
2018-07-03T02:22:50.478Z,97.70
2018-07-03T02:25:19.063Z,98.20
2018-07-03T02:27:47.691Z,97.80
2018-07-03T02:30:16.641Z,97.70
2018-07-03T02:32:45.313Z,98.80
2018-07-03T02:35:13.851Z,98.90
2018-07-03T02:37:42.422Z,98.70
2018-07-03T02:40:10.966Z,97.00
2018-07-03T02:42:39.589Z,96.90
2018-07-03T02:45:08.308Z,97.00
2018-07-03T02:47:36.967Z,98.30
2018-07-03T02:50:06.030Z,97.20
2018-07-03T02:52:34.694Z,97.80
2018-07-03T02:55:03.235Z,97.50
2018-07-03T02:57:31.865Z,97.50
2018-07-03T03:00:00.435Z,97.10
2018-07-03T03:02:29.030Z,97.40
2018-07-03T03:04:57.846Z,97.50
2018-07-03T03:07:26.431Z,97.50
2018-07-03T03:09:54.979Z,97.50
2018-07-03T03:12:23.611Z,98.60
2018-07-03T03:14:52.469Z,98.40
2018-07-03T03:17:21.035Z,99.10
2018-07-03T03:19:49.591Z,99.60
2018-07-03T03:22:18.154Z,99.60
2018-07-03T03:24:46.858Z,99.00
2018-07-03T03:27:15.501Z,99.70
2018-07-03T03:29:44.110Z,98.80
2018-07-03T03:32:12.775Z,99.90
2018-07-03T03:34:41.490Z,99.90
2018-07-03T03:37:10.135Z,99.90
2018-07-03T03:39:38.697Z,99.30
2018-07-03T03:42:07.235Z,99.10
2018-07-03T03:44:35.799Z,99.90
2018-07-03T03:47:04.306Z,99.90
2018-07-03T03:49:32.923Z,99.70
2018-07-03T03:54:29.976Z,99.40
2018-07-03T03:56:58.523Z,99.80
2018-07-03T03:59:27.185Z,99.90
2018-07-03T04:01:55.747Z,99.90
2018-07-03T04:04:24.510Z,99.90
2018-07-03T04:06:53.016Z,99.90
2018-07-03T04:09:21.568Z,99.90
2018-07-03T04:11:50.071Z,99.90
2018-07-03T04:14:18.802Z,99.90
2018-07-03T04:16:47.510Z,99.90
2018-07-03T04:19:16.070Z,99.90
2018-07-03T04:21:44.928Z,99.90
2018-07-03T04:24:13.458Z,99.90
2018-07-03T04:26:42.056Z,99.90
2018-07-03T04:29:10.602Z,99.90
2018-07-03T04:31:39.155Z,99.90
2018-07-03T04:34:07.689Z,99.90
2018-07-03T04:36:36.251Z,99.90
2018-07-03T04:39:07.942Z,99.90
2018-07-03T04:41:36.783Z,99.90
2018-07-03T04:44:05.555Z,99.90
2018-07-03T04:46:34.155Z,99.90
2018-07-03T04:49:02.705Z,99.90
2018-07-03T04:51:31.584Z,99.90
2018-07-03T04:54:00.375Z,99.90
2018-07-03T04:56:28.977Z,99.90
2018-07-03T04:58:57.772Z,99.90
2018-07-03T05:01:26.338Z,99.90
2018-07-03T05:03:54.839Z,99.90
2018-07-03T05:06:23.411Z,99.90
2018-07-03T05:08:52.090Z,99.90
2018-07-03T05:11:20.652Z,99.90
2018-07-03T05:13:49.206Z,99.90
2018-07-03T05:16:17.723Z,99.90
2018-07-03T05:18:46.555Z,99.90
2018-07-03T05:21:15.230Z,99.90
2018-07-03T05:23:43.890Z,99.90
2018-07-03T05:26:12.714Z,99.90
2018-07-03T05:28:41.256Z,99.90
2018-07-03T05:31:09.798Z,99.90
2018-07-03T05:33:38.643Z,99.90
2018-07-03T05:36:07.064Z,99.90
2018-07-03T05:38:35.650Z,99.90
2018-07-03T05:41:04.587Z,99.90
2018-07-03T05:43:33.126Z,99.70
2018-07-03T05:46:01.696Z,99.90
2018-07-03T05:48:30.260Z,99.90
2018-07-03T05:50:58.791Z,99.90
2018-07-03T05:53:27.494Z,99.90
2018-07-03T05:55:56.170Z,99.80
2018-07-03T05:58:24.766Z,99.90
2018-07-03T06:00:53.315Z,99.70
2018-07-03T06:03:21.859Z,99.80
2018-07-03T06:05:50.639Z,99.40
2018-07-03T06:08:19.283Z,98.70
2018-07-03T06:10:47.851Z,98.80
2018-07-03T06:13:16.418Z,98.60
2018-07-03T06:15:45.109Z,97.10
2018-07-03T06:18:13.674Z,97.40
2018-07-03T06:20:42.255Z,97.30
2018-07-03T06:23:11.070Z,97.00
2018-07-03T06:25:39.565Z,96.90
2018-07-03T06:28:08.602Z,96.80
2018-07-03T06:30:37.303Z,96.80
2018-07-03T06:33:06.726Z,96.40
2018-07-03T06:35:37.755Z,95.60
2018-07-03T06:38:06.604Z,96.10
2018-07-03T06:40:35.598Z,95.50
2018-07-03T06:43:04.144Z,95.70
2018-07-03T06:45:32.663Z,95.00
2018-07-03T06:48:01.258Z,94.60
2018-07-03T06:50:29.783Z,94.80
2018-07-03T06:52:58.345Z,94.70
2018-07-03T06:55:27.267Z,94.60
2018-07-03T06:57:55.843Z,94.80
2018-07-03T07:00:24.424Z,94.00
2018-07-03T07:02:52.967Z,93.90
2018-07-03T07:05:21.618Z,94.00
2018-07-03T07:07:50.159Z,93.60
2018-07-03T07:10:18.730Z,94.10
2018-07-03T07:12:47.288Z,93.40
2018-07-03T07:15:15.839Z,92.70
2018-07-03T07:17:44.435Z,93.00
2018-07-03T07:20:13.047Z,93.00
2018-07-03T07:22:41.631Z,92.10
2018-07-03T07:25:10.151Z,92.40
2018-07-03T07:27:38.759Z,90.70
2018-07-03T07:30:07.591Z,89.80
2018-07-03T07:32:36.197Z,86.30
2018-07-03T07:35:04.746Z,85.10
2018-07-03T07:37:33.323Z,83.60
2018-07-03T07:40:01.862Z,85.40
2018-07-03T07:42:30.443Z,83.80
2018-07-03T07:44:59.072Z,76.60
2018-07-03T07:47:27.798Z,79.50
2018-07-03T07:49:56.406Z,71.80
2018-07-03T07:52:24.931Z,71.30
2018-07-03T07:54:53.526Z,73.70
2018-07-03T07:57:22.048Z,72.00
2018-07-03T07:59:50.810Z,73.00
2018-07-03T08:02:19.447Z,76.40
2018-07-03T08:04:48.007Z,75.90
2018-07-03T08:07:16.588Z,76.40
2018-07-03T08:09:45.143Z,74.80
2018-07-03T08:12:14.450Z,74.60
2018-07-03T08:14:43.199Z,72.90
2018-07-03T08:17:12.098Z,71.30
2018-07-03T08:19:40.630Z,70.30
2018-07-03T08:22:09.355Z,67.80
2018-07-03T08:24:38.154Z,65.70
2018-07-03T08:27:06.719Z,68.90
2018-07-03T08:29:35.546Z,66.40
2018-07-03T08:32:04.311Z,63.20
2018-07-03T08:34:32.966Z,64.60
2018-07-03T08:37:02.184Z,58.90
2018-07-03T08:39:30.958Z,60.00
2018-07-03T08:41:59.616Z,56.40
2018-07-03T08:44:29.177Z,58.20
2018-07-03T08:46:57.779Z,55.20
2018-07-03T08:49:26.286Z,53.80
2018-07-03T08:51:54.995Z,52.70
2018-07-03T08:54:23.600Z,53.90
2018-07-03T08:56:52.142Z,52.60
2018-07-03T08:59:20.646Z,54.00
2018-07-03T09:01:49.335Z,50.80
2018-07-03T09:04:18.150Z,54.50
2018-07-03T09:06:46.635Z,52.40
2018-07-03T09:09:15.219Z,50.10
2018-07-03T09:11:43.881Z,51.00
2018-07-03T09:14:12.513Z,50.00
2018-07-03T09:16:41.147Z,50.70
2018-07-03T09:19:09.832Z,47.90
2018-07-03T09:21:38.579Z,48.60
2018-07-03T09:24:07.113Z,53.20
2018-07-03T09:26:36.039Z,48.60
2018-07-03T09:29:04.694Z,47.90
2018-07-03T09:31:33.605Z,49.70
2018-07-03T09:34:02.430Z,49.00
2018-07-03T09:36:31.313Z,46.40
2018-07-03T09:38:59.858Z,47.40
2018-07-03T09:41:28.374Z,46.00
2018-07-03T09:43:57.074Z,43.00
2018-07-03T09:46:26.223Z,40.90
2018-07-03T09:48:54.991Z,40.30
2018-07-03T09:51:23.590Z,40.80
2018-07-03T09:53:52.148Z,40.70
2018-07-03T09:56:20.715Z,42.00
2018-07-03T09:58:49.332Z,41.10
2018-07-03T10:01:18.841Z,40.00
2018-07-03T10:03:47.430Z,40.50
2018-07-03T10:06:16.487Z,40.80
2018-07-03T10:08:47.031Z,42.50
2018-07-03T10:11:15.588Z,42.30
2018-07-03T10:13:44.102Z,39.80
2018-07-03T10:16:12.931Z,39.50
2018-07-03T10:18:41.704Z,37.80
2018-07-03T10:21:10.306Z,40.50
2018-07-03T10:23:38.856Z,40.40
2018-07-03T10:26:07.563Z,41.50
2018-07-03T10:28:36.286Z,40.10
2018-07-03T10:31:04.856Z,39.50
2018-07-03T10:33:33.390Z,40.40
2018-07-03T10:36:01.956Z,40.30
2018-07-03T10:38:30.645Z,39.20
2018-07-03T10:40:59.233Z,40.80
2018-07-03T10:43:27.763Z,41.70
2018-07-03T10:45:56.395Z,41.00
2018-07-03T10:48:25.251Z,41.80
2018-07-03T10:50:53.883Z,36.80
2018-07-03T10:53:22.566Z,37.90
2018-07-03T10:55:51.119Z,39.00
2018-07-03T10:58:19.818Z,41.30
2018-07-03T11:00:48.370Z,41.10
2018-07-03T11:03:16.940Z,41.60
2018-07-03T11:05:45.710Z,41.00
2018-07-03T11:08:14.626Z,42.30
2018-07-03T11:10:43.245Z,40.50
2018-07-03T11:13:11.892Z,44.00
2018-07-03T11:15:40.671Z,43.00
2018-07-03T11:18:09.242Z,43.60
2018-07-03T11:20:37.750Z,43.70
2018-07-03T11:23:06.374Z,43.90
2018-07-03T11:25:34.991Z,45.00
2018-07-03T11:28:03.760Z,45.30
2018-07-03T11:30:32.458Z,46.20
2018-07-03T11:33:00.982Z,46.90
2018-07-03T11:35:29.627Z,47.40
2018-07-03T11:37:58.429Z,49.20
2018-07-03T11:40:27.162Z,47.70
2018-07-03T11:42:55.800Z,48.30
2018-07-03T11:45:24.418Z,49.00
2018-07-03T11:47:53.020Z,49.90
2018-07-03T11:50:21.750Z,49.20
2018-07-03T11:52:50.390Z,50.50
2018-07-03T11:55:18.954Z,50.10
2018-07-03T11:57:47.522Z,49.60
2018-07-03T12:00:16.766Z,50.10
2018-07-03T12:02:45.335Z,50.60
2018-07-03T12:07:42.262Z,56.20
2018-07-03T12:10:10.894Z,56.40
2018-07-03T12:12:39.540Z,57.30
2018-07-03T12:15:08.145Z,58.00
2018-07-03T12:17:36.798Z,58.70
2018-07-03T12:20:06.155Z,59.50
2018-07-03T12:22:34.918Z,59.80
2018-07-03T12:25:03.755Z,59.30
2018-07-03T12:27:32.386Z,59.60
2018-07-03T12:30:00.954Z,60.70
2018-07-03T12:32:29.567Z,61.00
2018-07-03T12:34:58.366Z,61.10
2018-07-03T12:37:26.959Z,62.20
2018-07-03T12:39:55.618Z,61.70
2018-07-03T12:42:24.202Z,60.70
2018-07-03T12:44:53.028Z,60.90
2018-07-03T12:47:21.625Z,60.40
2018-07-03T12:49:50.394Z,61.80
2018-07-03T12:52:19.274Z,63.60
2018-07-03T12:54:47.861Z,61.30
2018-07-03T12:57:16.473Z,62.10
2018-07-03T12:59:44.982Z,64.10
2018-07-03T13:02:13.692Z,66.40
2018-07-03T13:04:42.298Z,62.30
2018-07-03T13:07:10.927Z,63.10
2018-07-03T13:09:39.450Z,64.10
2018-07-03T13:12:08.023Z,65.20
2018-07-03T13:14:36.882Z,63.50
2018-07-03T13:17:05.915Z,65.70
2018-07-03T13:19:34.451Z,64.30
2018-07-03T13:22:03.103Z,62.30
2018-07-03T13:24:31.693Z,61.30
2018-07-03T13:27:00.243Z,60.50
2018-07-03T13:29:28.915Z,63.20
2018-07-03T13:31:57.542Z,59.80
2018-07-03T13:34:26.532Z,59.90
2018-07-03T13:36:55.328Z,60.50
2018-07-03T13:39:24.043Z,61.70
2018-07-03T13:41:52.927Z,62.20
2018-07-03T13:44:21.739Z,61.40
2018-07-03T13:46:50.387Z,60.10
2018-07-03T13:49:18.922Z,60.30
2018-07-03T13:51:47.726Z,59.00
2018-07-03T13:54:16.454Z,58.10
2018-07-03T13:56:45.118Z,56.40
2018-07-03T13:59:13.651Z,56.70
2018-07-03T14:01:42.286Z,59.60
2018-07-03T14:04:10.816Z,59.60
2018-07-03T14:06:39.810Z,57.20
2018-07-03T14:09:09.199Z,56.50
2018-07-03T14:11:38.032Z,56.50
2018-07-03T14:14:07.278Z,56.50
2018-07-03T14:16:36.085Z,57.00
2018-07-03T14:19:04.591Z,56.50
2018-07-03T14:21:33.153Z,56.10
2018-07-03T14:24:01.758Z,56.80
2018-07-03T14:26:30.550Z,57.50
2018-07-03T14:28:59.157Z,59.60
2018-07-03T14:33:55.978Z,57.20
2018-07-03T14:36:24.589Z,55.70
2018-07-03T14:38:53.125Z,54.40
2018-07-03T14:41:21.714Z,56.00
2018-07-03T14:43:50.266Z,54.10
2018-07-03T14:46:18.950Z,55.70
2018-07-03T14:48:47.494Z,54.90
2018-07-03T14:51:16.470Z,56.00
2018-07-03T14:53:45.226Z,53.90
2018-07-03T14:56:14.050Z,52.60
2018-07-03T14:58:42.622Z,54.50
2018-07-03T15:01:11.231Z,54.20
2018-07-03T15:03:39.825Z,54.70
2018-07-03T15:06:08.390Z,54.20
2018-07-03T15:08:37.011Z,54.00
2018-07-03T15:11:05.698Z,54.50
2018-07-03T15:13:34.244Z,54.10
2018-07-03T15:16:02.982Z,54.90
2018-07-03T15:18:36.866Z,55.10
2018-07-03T15:21:05.579Z,53.00
2018-07-03T15:23:34.131Z,53.20
2018-07-03T15:26:02.687Z,55.70
2018-07-03T15:28:31.400Z,53.40
2018-07-03T15:31:00.152Z,52.30
2018-07-03T15:33:29.194Z,53.00
2018-07-03T15:35:57.775Z,52.40
2018-07-03T15:38:26.283Z,53.20
2018-07-03T15:40:54.851Z,55.50
2018-07-03T15:43:23.791Z,55.60
2018-07-03T15:45:52.374Z,53.20
2018-07-03T15:48:20.936Z,54.30
2018-07-03T15:50:49.747Z,55.00
2018-07-03T15:55:46.894Z,56.30
2018-07-03T15:58:15.582Z,53.30
2018-07-03T16:00:44.624Z,54.60
2018-07-03T16:05:34.575Z,54.60
2018-07-03T16:09:11.760Z,55.00
2018-07-03T16:11:40.784Z,54.40
2018-07-03T16:16:39.390Z,53.30
2018-07-03T16:19:13.131Z,52.90
2018-07-03T16:21:41.851Z,53.40
2018-07-03T16:24:10.797Z,53.60
2018-07-03T16:26:39.836Z,53.30
2018-07-03T16:29:10.743Z,53.50
2018-07-03T16:31:39.578Z,55.60
2018-07-03T16:34:08.099Z,53.10
2018-07-03T16:36:36.942Z,52.90
2018-07-03T16:39:09.648Z,52.80
2018-07-03T16:41:39.106Z,51.80
2018-07-03T16:44:08.456Z,53.30
2018-07-03T16:46:36.993Z,52.10
2018-07-03T16:49:05.699Z,53.20
2018-07-03T16:51:34.572Z,53.20
2018-07-03T16:54:03.284Z,53.90
2018-07-03T16:56:32.252Z,53.90
2018-07-03T16:59:00.846Z,53.80
2018-07-03T17:01:29.460Z,51.50
2018-07-03T17:03:58.055Z,51.60
2018-07-03T17:06:26.685Z,53.00
2018-07-03T17:08:55.230Z,53.30
2018-07-03T17:11:23.830Z,53.10
2018-07-03T17:13:52.569Z,52.10
2018-07-03T17:16:21.242Z,51.60
2018-07-03T17:18:55.081Z,54.40
2018-07-03T17:21:23.698Z,51.70
2018-07-03T17:23:52.383Z,53.90
2018-07-03T17:26:21.026Z,52.40
2018-07-03T17:28:49.623Z,52.50
2018-07-03T17:31:18.310Z,53.40
2018-07-03T17:33:47.152Z,52.40
2018-07-03T17:36:16.240Z,52.70
2018-07-03T17:38:45.157Z,53.80
2018-07-03T17:41:24.857Z,52.70
2018-07-03T17:44:06.087Z,52.50
2018-07-03T17:46:34.791Z,52.50
2018-07-03T17:49:03.748Z,52.80
2018-07-03T17:51:32.726Z,53.50
2018-07-03T17:54:01.427Z,54.10
2018-07-03T17:56:30.111Z,56.10
2018-07-03T17:58:58.983Z,55.00
2018-07-03T18:01:27.624Z,55.00
2018-07-03T18:03:56.446Z,56.10
2018-07-03T18:06:25.054Z,55.00
2018-07-03T18:08:53.731Z,55.50
2018-07-03T18:11:22.698Z,56.00
2018-07-03T18:13:51.306Z,56.30
2018-07-03T18:16:20.355Z,55.80
2018-07-03T18:18:54.313Z,56.00
2018-07-03T18:21:23.343Z,56.30
2018-07-03T18:23:52.048Z,56.30
2018-07-03T18:26:20.635Z,56.30
2018-07-03T18:28:49.555Z,56.70
2018-07-03T18:31:18.334Z,56.80
2018-07-03T18:33:46.999Z,57.50
2018-07-03T18:36:15.506Z,57.30
2018-07-03T18:38:44.232Z,58.00
2018-07-03T18:41:12.840Z,58.10
2018-07-03T18:43:41.679Z,57.90
2018-07-03T18:46:10.355Z,58.60
2018-07-03T18:48:39.415Z,58.20
2018-07-03T18:51:08.451Z,57.90
2018-07-03T18:53:37.439Z,59.60
2018-07-03T18:56:06.373Z,58.70
2018-07-03T18:58:35.028Z,58.60
2018-07-03T19:01:03.750Z,59.80
2018-07-03T19:03:32.310Z,59.70
2018-07-03T19:06:00.951Z,59.80
2018-07-03T19:08:29.503Z,60.70
2018-07-03T19:10:58.207Z,62.40
2018-07-03T19:13:26.829Z,61.20
2018-07-03T19:15:55.767Z,61.50
2018-07-03T19:18:24.363Z,62.20
2018-07-03T19:20:52.977Z,61.70
2018-07-03T19:23:21.802Z,62.50
2018-07-03T19:25:50.376Z,62.60
2018-07-03T19:28:19.060Z,64.30
2018-07-03T19:30:47.599Z,64.90
2018-07-03T19:33:16.222Z,65.10
2018-07-03T19:35:45.604Z,65.60
2018-07-03T19:38:14.294Z,66.30
2018-07-03T19:40:43.136Z,66.90
2018-07-03T19:43:23.001Z,67.50
2018-07-03T19:45:52.576Z,68.70
2018-07-03T19:50:50.791Z,70.70
2018-07-03T19:53:19.673Z,72.10
2018-07-03T19:55:49.431Z,72.60
2018-07-03T19:58:18.655Z,74.00
2018-07-03T20:00:48.398Z,74.10
2018-07-03T20:03:17.172Z,75.00
2018-07-03T20:05:46.038Z,75.70
2018-07-03T20:08:14.841Z,76.10
2018-07-03T20:10:43.500Z,76.60
2018-07-03T20:13:13.990Z,77.40
2018-07-03T20:15:42.782Z,78.40
2018-07-03T20:18:12.470Z,79.10
2018-07-03T20:20:41.399Z,80.40
2018-07-03T20:23:10.192Z,80.40
2018-07-03T20:25:39.663Z,82.50
2018-07-03T20:28:09.406Z,81.10
2018-07-03T20:33:06.623Z,82.00
2018-07-03T20:35:35.851Z,81.60
2018-07-03T20:38:06.203Z,82.40
2018-07-03T20:40:53.974Z,83.00
2018-07-03T20:43:23.247Z,83.60
2018-07-03T20:45:51.811Z,82.70
2018-07-03T20:48:20.719Z,84.10
2018-07-03T20:50:49.520Z,84.30
2018-07-03T20:53:18.117Z,85.80
2018-07-03T20:55:46.813Z,85.60
2018-07-03T20:58:15.720Z,85.20
2018-07-03T21:00:44.516Z,86.30
2018-07-03T21:03:13.133Z,86.30
2018-07-03T21:05:41.888Z,87.10
2018-07-03T21:08:10.635Z,86.70
2018-07-03T21:10:39.456Z,87.60
2018-07-03T21:13:08.059Z,88.00
2018-07-03T21:18:05.001Z,89.90
2018-07-03T21:20:33.861Z,90.00
2018-07-03T21:23:02.548Z,90.40
2018-07-03T21:25:31.342Z,90.40
2018-07-03T21:28:00.028Z,90.70
2018-07-03T21:30:28.665Z,91.00
2018-07-03T21:32:57.364Z,91.80
2018-07-03T21:35:26.266Z,91.80
2018-07-03T21:37:55.310Z,92.30
2018-07-03T21:40:23.865Z,93.60
2018-07-03T21:42:52.487Z,93.40
2018-07-03T21:47:49.526Z,93.10
2018-07-03T21:50:18.062Z,93.30
2018-07-03T21:52:46.687Z,93.50
2018-07-03T21:55:15.443Z,93.70
2018-07-03T21:57:44.019Z,94.70
2018-07-03T22:00:12.739Z,94.90
2018-07-03T22:02:41.341Z,94.80
2018-07-03T22:05:10.087Z,94.30
2018-07-03T22:07:38.810Z,95.30
2018-07-03T22:10:07.560Z,95.90
2018-07-03T22:12:36.352Z,96.40
2018-07-03T22:15:05.097Z,96.80
2018-07-03T22:17:33.847Z,96.40
2018-07-03T22:20:02.395Z,96.80
2018-07-03T22:22:31.088Z,97.90
2018-07-03T22:24:59.728Z,98.10
2018-07-03T22:27:28.520Z,97.60
2018-07-03T22:29:57.087Z,98.20
2018-07-03T22:32:25.678Z,98.90
2018-07-03T22:34:54.224Z,98.80
2018-07-03T22:37:22.766Z,99.20
2018-07-03T22:39:51.469Z,99.90
2018-07-03T22:42:19.970Z,99.10
2018-07-03T22:44:48.568Z,98.50
2018-07-03T22:47:17.136Z,98.50
2018-07-03T22:49:45.698Z,98.90
2018-07-03T22:52:14.212Z,99.00
2018-07-03T22:54:42.872Z,99.50
2018-07-03T22:57:11.450Z,99.60
2018-07-03T22:59:40.078Z,99.60
2018-07-03T23:02:08.658Z,99.80
2018-07-03T23:04:37.217Z,99.90
2018-07-03T23:07:05.960Z,99.90
2018-07-03T23:09:34.495Z,99.90
2018-07-03T23:12:03.095Z,99.90
2018-07-03T23:14:31.806Z,99.90
2018-07-03T23:17:00.526Z,99.90
2018-07-03T23:19:29.229Z,99.90
2018-07-03T23:21:57.749Z,99.90
2018-07-03T23:24:26.294Z,99.90
2018-07-03T23:26:54.976Z,99.90
2018-07-03T23:29:23.622Z,99.90
2018-07-03T23:31:52.180Z,99.90
2018-07-03T23:34:20.872Z,99.90
2018-07-03T23:36:49.435Z,99.90
2018-07-03T23:39:18.027Z,99.90
2018-07-03T23:41:46.559Z,99.90
2018-07-03T23:44:15.115Z,99.90
2018-07-03T23:46:54.954Z,99.90
2018-07-03T23:49:34.865Z,99.90
2018-07-03T23:52:14.711Z,99.90
2018-07-03T23:54:54.541Z,99.90
2018-07-03T23:57:34.343Z,99.90
